createdAt,value
2018-08-22T00:01:41.893Z,95439.45
2018-08-22T00:04:07.764Z,95428.55
2018-08-22T00:06:33.768Z,95430.34
2018-08-22T00:08:59.764Z,95430.34
2018-08-22T00:11:25.714Z,95432.53
2018-08-22T00:13:51.689Z,95431.31
2018-08-22T00:16:17.660Z,95433.52
2018-08-22T00:18:43.638Z,95431.72
2018-08-22T00:21:09.614Z,95429.94
2018-08-22T00:23:35.589Z,95428.95
2018-08-22T00:26:01.560Z,95428.55
2018-08-22T00:28:27.536Z,95428.55
2018-08-22T00:30:53.512Z,95431.31
2018-08-22T00:33:19.488Z,95429.53
2018-08-22T00:35:45.467Z,95433.11
2018-08-22T00:38:11.449Z,95433.11
2018-08-22T00:40:37.423Z,95435.30
2018-08-22T00:43:03.437Z,95434.09
2018-08-22T00:45:29.411Z,95431.89
2018-08-22T00:47:55.386Z,95439.22
2018-08-22T00:50:21.366Z,95437.03
2018-08-22T00:52:47.351Z,95440.20
2018-08-22T00:55:13.332Z,95445.17
2018-08-22T00:57:39.367Z,95441.99
2018-08-22T01:00:05.329Z,95443.95
2018-08-22T01:02:31.301Z,95439.43
2018-08-22T01:04:57.274Z,95441.59
2018-08-22T01:07:23.257Z,95442.98
2018-08-22T01:09:49.239Z,95441.59
2018-08-22T01:12:15.210Z,95446.73
2018-08-22T01:14:41.189Z,95440.20
2018-08-22T01:17:07.173Z,95448.11
2018-08-22T01:19:33.145Z,95442.20
2018-08-22T01:21:59.133Z,95450.88
2018-08-22T01:24:25.111Z,95447.34
2018-08-22T01:26:51.092Z,95449.70
2018-08-22T01:29:17.064Z,95447.91
2018-08-22T01:31:43.045Z,95447.34
2018-08-22T01:34:09.026Z,95450.28
2018-08-22T01:36:34.996Z,95445.55
2018-08-22T01:39:01.065Z,95444.73
2018-08-22T01:41:27.055Z,95443.75
2018-08-22T01:43:53.019Z,95442.37
2018-08-22T01:46:19.002Z,95440.01
2018-08-22T01:48:44.981Z,95441.97
2018-08-22T01:51:10.960Z,95444.33
2018-08-22T01:53:36.974Z,95443.93
2018-08-22T01:56:02.953Z,95438.22
2018-08-22T01:58:28.926Z,95446.13
2018-08-22T02:00:54.908Z,95442.55
2018-08-22T02:03:20.890Z,95447.10
2018-08-22T02:05:46.870Z,95451.26
2018-08-22T02:08:12.857Z,95454.64
2018-08-22T02:10:38.832Z,95455.41
2018-08-22T02:13:04.806Z,95454.03
2018-08-22T02:15:30.780Z,95452.84
2018-08-22T02:17:56.753Z,95452.45
2018-08-22T02:20:22.739Z,95451.87
2018-08-22T02:22:48.705Z,95447.88
2018-08-22T02:25:14.766Z,95454.64
2018-08-22T02:27:40.661Z,95451.06
2018-08-22T02:30:06.637Z,95448.29
2018-08-22T02:32:32.617Z,95447.31
2018-08-22T02:34:58.590Z,95447.88
2018-08-22T02:37:24.570Z,95449.27
2018-08-22T02:39:50.542Z,95447.31
2018-08-22T02:42:16.558Z,95455.62
2018-08-22T02:44:42.540Z,95449.27
2018-08-22T02:47:08.515Z,95456.37
2018-08-22T02:49:34.497Z,95445.29
2018-08-22T02:52:00.476Z,95450.05
2018-08-22T02:54:26.450Z,95446.30
2018-08-22T02:56:52.442Z,95446.30
2018-08-22T02:59:18.429Z,95446.88
2018-08-22T03:01:44.401Z,95459.34
2018-08-22T03:04:10.379Z,95457.38
2018-08-22T03:06:36.425Z,95463.50
2018-08-22T03:09:02.360Z,95460.73
2018-08-22T03:11:28.332Z,95458.94
2018-08-22T03:13:54.309Z,95466.27
2018-08-22T03:16:20.282Z,95464.07
2018-08-22T03:18:46.261Z,95463.50
2018-08-22T03:21:12.242Z,95460.32
2018-08-22T03:23:38.224Z,95466.27
2018-08-22T03:26:04.205Z,95460.90
2018-08-22T03:28:30.178Z,95467.42
2018-08-22T03:30:56.157Z,95469.61
2018-08-22T03:33:22.129Z,95475.56
2018-08-22T03:35:48.114Z,95466.64
2018-08-22T03:38:14.089Z,95476.13
2018-08-22T03:40:40.065Z,95476.13
2018-08-22T03:43:06.044Z,95484.44
2018-08-22T03:45:32.115Z,95485.05
2018-08-22T03:47:58.157Z,95478.12
2018-08-22T03:50:24.107Z,95491.57
2018-08-22T03:52:50.076Z,95490.59
2018-08-22T03:55:16.053Z,95490.59
2018-08-22T03:57:42.026Z,95492.55
2018-08-22T04:00:08.040Z,95491.16
2018-08-22T04:02:34.025Z,95496.13
2018-08-22T04:05:00.016Z,95494.34
2018-08-22T04:07:26.000Z,95496.30
2018-08-22T04:09:51.976Z,95499.48
2018-08-22T04:12:17.970Z,95506.40
2018-08-22T04:14:43.969Z,95506.80
2018-08-22T04:17:09.953Z,95499.48
2018-08-22T04:19:35.930Z,95512.92
2018-08-22T04:22:01.906Z,95518.46
2018-08-22T04:24:27.880Z,95520.66
2018-08-22T04:26:53.856Z,95527.58
2018-08-22T04:29:19.832Z,95528.33
2018-08-22T04:31:45.816Z,95527.17
2018-08-22T04:34:11.794Z,95530.12
2018-08-22T04:36:37.768Z,95526.94
2018-08-22T04:39:03.775Z,95527.34
2018-08-22T04:41:29.754Z,95530.12
2018-08-22T04:43:55.737Z,95527.34
2018-08-22T04:46:21.716Z,95532.48
2018-08-22T04:48:47.729Z,95534.67
2018-08-22T04:51:13.710Z,95532.48
2018-08-22T04:53:39.686Z,95528.73
2018-08-22T04:56:05.684Z,95538.83
2018-08-22T04:58:31.660Z,95538.83
2018-08-22T05:00:57.637Z,95543.19
2018-08-22T05:03:23.622Z,95544.58
2018-08-22T05:05:49.626Z,95547.34
2018-08-22T05:08:15.580Z,95539.61
2018-08-22T05:10:41.559Z,95538.62
2018-08-22T05:13:07.534Z,95539.20
2018-08-22T05:15:33.509Z,95536.84
2018-08-22T05:17:59.496Z,95535.05
2018-08-22T05:20:25.469Z,95526.73
2018-08-22T05:22:51.445Z,95536.44
2018-08-22T05:25:17.420Z,95534.06
2018-08-22T05:27:43.419Z,95532.28
2018-08-22T05:30:09.434Z,95537.02
2018-08-22T05:32:35.368Z,95540.59
2018-08-22T05:35:01.346Z,95544.17
2018-08-22T05:37:27.333Z,95547.52
2018-08-22T05:39:53.370Z,95546.12
2018-08-22T05:42:19.320Z,95545.72
2018-08-22T05:44:45.334Z,95549.87
2018-08-22T05:47:11.305Z,95552.08
2018-08-22T05:49:37.280Z,95550.86
2018-08-22T05:52:03.256Z,95542.14
2018-08-22T05:54:29.247Z,95543.36
2018-08-22T05:56:55.221Z,95542.55
2018-08-22T05:59:21.202Z,95542.14
2018-08-22T06:01:47.222Z,95537.62
2018-08-22T06:04:13.198Z,95541.16
2018-08-22T06:06:39.171Z,95545.72
2018-08-22T06:09:05.163Z,95541.57
2018-08-22T06:11:31.124Z,95538.23
2018-08-22T06:13:57.101Z,95541.57
2018-08-22T06:16:23.073Z,95547.11
2018-08-22T06:18:49.058Z,95553.46
2018-08-22T06:21:15.044Z,95548.49
2018-08-22T06:23:41.021Z,95555.83
2018-08-22T06:26:06.994Z,95555.42
2018-08-22T06:28:33.016Z,95549.87
2018-08-22T06:30:58.995Z,95552.25
2018-08-22T06:33:24.978Z,95560.95
2018-08-22T06:35:50.974Z,95564.70
2018-08-22T06:38:16.996Z,95557.78
2018-08-22T06:40:42.953Z,95562.34
2018-08-22T06:43:08.934Z,95556.80
2018-08-22T06:45:34.913Z,95559.17
2018-08-22T06:48:00.894Z,95556.40
2018-08-22T06:50:26.894Z,95558.77
2018-08-22T06:52:52.897Z,95562.55
2018-08-22T06:55:18.915Z,95556.00
2018-08-22T06:57:44.885Z,95559.58
2018-08-22T07:00:10.857Z,95559.98
2018-08-22T07:02:36.882Z,95567.48
2018-08-22T07:05:02.858Z,95567.08
2018-08-22T07:07:28.828Z,95561.16
2018-08-22T07:09:54.804Z,95566.09
2018-08-22T07:12:20.788Z,95561.16
2018-08-22T07:14:46.768Z,95562.92
2018-08-22T07:17:12.750Z,95555.63
2018-08-22T07:19:38.763Z,95555.63
2018-08-22T07:22:04.736Z,95553.23
2018-08-22T07:24:30.710Z,95557.01
2018-08-22T07:26:56.688Z,95557.37
2018-08-22T07:29:22.660Z,95553.62
2018-08-22T07:31:48.639Z,95558.77
2018-08-22T07:34:14.618Z,95556.40
2018-08-22T07:36:40.611Z,95560.95
2018-08-22T07:39:06.593Z,95555.42
2018-08-22T07:41:32.574Z,95556.80
2018-08-22T07:43:58.582Z,95555.42
2018-08-22T07:46:24.534Z,95555.42
2018-08-22T07:48:50.506Z,95552.25
2018-08-22T07:51:16.517Z,95549.68
2018-08-22T07:53:42.496Z,95549.68
2018-08-22T07:56:08.481Z,95545.52
2018-08-22T07:58:34.453Z,95548.30
2018-08-22T08:01:00.432Z,95547.69
2018-08-22T08:03:26.425Z,95544.14
2018-08-22T08:05:52.411Z,95543.16
2018-08-22T08:08:18.387Z,95540.77
2018-08-22T08:10:44.366Z,95545.92
2018-08-22T08:13:10.354Z,95552.65
2018-08-22T08:15:36.329Z,95540.96
2018-08-22T08:18:02.306Z,95543.16
2018-08-22T08:20:28.281Z,95537.62
2018-08-22T08:22:54.262Z,95541.37
2018-08-22T08:25:20.241Z,95539.38
2018-08-22T08:27:46.220Z,95543.94
2018-08-22T08:30:12.195Z,95541.77
2018-08-22T08:32:38.180Z,95541.16
2018-08-22T08:35:04.157Z,95535.22
2018-08-22T08:37:30.143Z,95536.23
2018-08-22T08:39:56.117Z,95535.63
2018-08-22T08:42:22.094Z,95532.08
2018-08-22T08:44:48.068Z,95533.84
2018-08-22T08:47:14.049Z,95527.31
2018-08-22T08:49:40.098Z,95530.49
2018-08-22T08:52:06.010Z,95523.77
2018-08-22T08:54:31.987Z,95528.30
2018-08-22T08:56:57.965Z,95524.55
2018-08-22T08:59:23.945Z,95523.56
2018-08-22T09:01:49.916Z,95521.20
2018-08-22T09:04:15.948Z,95522.59
2018-08-22T09:06:41.881Z,95518.03
2018-08-22T09:09:07.858Z,95515.66
2018-08-22T09:11:33.834Z,95513.30
2018-08-22T09:13:59.850Z,95516.06
2018-08-22T09:16:25.838Z,95514.68
2018-08-22T09:18:51.862Z,95511.33
2018-08-22T09:21:17.857Z,95506.17
2018-08-22T09:23:43.784Z,95509.34
2018-08-22T09:26:09.764Z,95507.55
2018-08-22T09:28:35.768Z,95503.80
2018-08-22T09:31:01.745Z,95501.44
2018-08-22T09:33:27.717Z,95503.63
2018-08-22T09:35:53.705Z,95495.32
2018-08-22T09:38:19.684Z,95488.39
2018-08-22T09:40:45.702Z,95480.66
2018-08-22T09:43:11.691Z,95487.02
2018-08-22T09:45:37.612Z,95484.24
2018-08-22T09:48:03.613Z,95481.87
2018-08-22T09:50:29.585Z,95478.70
2018-08-22T09:52:55.605Z,95474.95
2018-08-22T09:55:21.591Z,95475.73
2018-08-22T09:57:47.567Z,95471.58
2018-08-22T10:00:13.628Z,95474.75
2018-08-22T10:02:39.574Z,95468.23
2018-08-22T10:05:05.561Z,95464.47
2018-08-22T10:07:31.603Z,95463.27
2018-08-22T10:09:57.578Z,95460.13
2018-08-22T10:12:23.526Z,95464.07
2018-08-22T10:14:49.470Z,95458.13
2018-08-22T10:17:15.508Z,95453.39
2018-08-22T10:19:41.535Z,95459.75
2018-08-22T10:22:07.473Z,95453.22
2018-08-22T10:24:33.472Z,95459.75
2018-08-22T10:26:59.464Z,95450.05
2018-08-22T10:29:25.425Z,95452.21
2018-08-22T10:31:51.410Z,95452.62
2018-08-22T10:34:17.401Z,95447.69
2018-08-22T10:36:43.401Z,95444.69
2018-08-22T10:39:09.376Z,95445.09
2018-08-22T10:41:35.356Z,95441.73
2018-08-22T10:44:01.337Z,95447.08
2018-08-22T10:46:27.336Z,95441.94
2018-08-22T10:48:53.334Z,95443.16
2018-08-22T10:51:19.292Z,95435.25
2018-08-22T10:53:45.270Z,95433.05
2018-08-22T10:56:11.257Z,95438.59
2018-08-22T10:58:37.235Z,95434.44
2018-08-22T11:01:03.211Z,95432.07
2018-08-22T11:03:29.190Z,95424.17
2018-08-22T11:05:55.171Z,95420.99
2018-08-22T11:08:21.145Z,95422.78
2018-08-22T11:10:47.127Z,95419.41
2018-08-22T11:13:13.106Z,95420.79
2018-08-22T11:15:39.138Z,95414.27
2018-08-22T11:18:05.094Z,95407.92
2018-08-22T11:20:31.082Z,95404.98
2018-08-22T11:22:57.064Z,95411.91
2018-08-22T11:25:23.091Z,95400.24
2018-08-22T11:27:49.066Z,95406.36
2018-08-22T11:30:15.036Z,95407.17
2018-08-22T11:32:41.033Z,95404.40
2018-08-22T11:35:07.012Z,95410.52
2018-08-22T11:37:32.994Z,95409.53
2018-08-22T11:39:58.968Z,95404.00
2018-08-22T11:42:25.000Z,95402.81
2018-08-22T11:44:50.992Z,95400.64
2018-08-22T11:47:16.975Z,95394.70
2018-08-22T11:49:42.946Z,95392.70
2018-08-22T11:52:08.925Z,95398.08
2018-08-22T11:54:34.924Z,95391.73
2018-08-22T11:57:00.928Z,95390.75
2018-08-22T11:59:26.875Z,95392.70
2018-08-22T12:01:52.946Z,95389.94
2018-08-22T12:04:18.878Z,95383.42
2018-08-22T12:06:44.861Z,95378.28
2018-08-22T12:09:10.844Z,95376.70
2018-08-22T12:11:36.875Z,95375.11
2018-08-22T12:14:02.825Z,95379.27
2018-08-22T12:16:29.223Z,95375.11
2018-08-22T12:18:55.171Z,95375.91
2018-08-22T12:21:21.146Z,95374.13
2018-08-22T12:23:47.120Z,95376.89
2018-08-22T12:26:13.099Z,95362.47
2018-08-22T12:28:39.078Z,95364.66
2018-08-22T12:31:05.144Z,95370.78
2018-08-22T12:33:31.048Z,95362.88
2018-08-22T12:35:57.025Z,95362.88
2018-08-22T12:38:23.005Z,95354.16
2018-08-22T12:40:49.024Z,95355.95
2018-08-22T12:43:15.008Z,95358.72
2018-08-22T12:45:40.993Z,95360.10
2018-08-22T12:48:06.970Z,95353.35
2018-08-22T12:50:32.959Z,95358.31
2018-08-22T12:52:58.931Z,95353.75
2018-08-22T12:55:24.927Z,95354.73
2018-08-22T12:57:50.900Z,95353.17
2018-08-22T13:00:16.875Z,95351.18
2018-08-22T13:02:42.853Z,95350.00
2018-08-22T13:05:08.860Z,95342.09
2018-08-22T13:07:34.857Z,95335.58
2018-08-22T13:10:00.861Z,95340.71
2018-08-22T13:12:26.875Z,95343.08
2018-08-22T13:14:52.849Z,95349.59
2018-08-22T13:17:18.829Z,95335.34
2018-08-22T13:19:44.851Z,95336.16
2018-08-22T13:22:10.852Z,95329.80
2018-08-22T13:24:36.861Z,95337.71
2018-08-22T13:27:02.847Z,95336.33
2018-08-22T13:29:28.816Z,95336.33
2018-08-22T13:31:54.813Z,95339.09
2018-08-22T13:34:20.789Z,95333.55
2018-08-22T13:36:46.772Z,95344.46
2018-08-22T13:39:12.792Z,95341.69
2018-08-22T13:41:38.741Z,95340.08
2018-08-22T13:44:04.737Z,95337.13
2018-08-22T13:46:30.726Z,95336.94
2018-08-22T13:48:56.706Z,95334.94
2018-08-22T13:51:22.682Z,95334.94
2018-08-22T13:53:48.712Z,95340.08
2018-08-22T13:56:14.690Z,95335.92
2018-08-22T13:58:40.659Z,95337.13
2018-08-22T14:01:06.659Z,95340.69
2018-08-22T14:03:32.647Z,95336.33
2018-08-22T14:05:58.645Z,95334.16
2018-08-22T14:08:24.628Z,95323.66
2018-08-22T14:10:50.596Z,95326.63
2018-08-22T14:13:16.598Z,95328.82
2018-08-22T14:15:42.596Z,95326.05
2018-08-22T14:18:08.575Z,95322.88
2018-08-22T14:20:34.552Z,95323.45
2018-08-22T14:23:00.526Z,95319.30
2018-08-22T14:25:26.520Z,95317.92
2018-08-22T14:27:52.504Z,95317.34
2018-08-22T14:30:18.550Z,95311.39
2018-08-22T14:32:44.514Z,95305.08
2018-08-22T14:35:10.620Z,95305.86
2018-08-22T14:37:36.616Z,95309.43
2018-08-22T14:40:02.658Z,95308.45
2018-08-22T14:42:28.602Z,95306.84
2018-08-22T14:44:54.689Z,95312.20
2018-08-22T14:47:20.617Z,95313.77
2018-08-22T14:49:46.610Z,95318.72
2018-08-22T14:52:12.581Z,95308.22
2018-08-22T14:54:38.579Z,95310.62
2018-08-22T14:57:04.561Z,95317.14
2018-08-22T14:59:30.536Z,95308.42
2018-08-22T15:01:56.509Z,95309.23
2018-08-22T15:04:22.539Z,95313.97
2018-08-22T15:06:48.533Z,95312.76
2018-08-22T15:09:14.541Z,95312.76
2018-08-22T15:11:40.484Z,95307.63
2018-08-22T15:14:06.477Z,95314.14
2018-08-22T15:16:32.474Z,95308.02
2018-08-22T15:18:58.438Z,95314.16
2018-08-22T15:21:24.432Z,95305.10
2018-08-22T15:23:50.412Z,95303.52
2018-08-22T15:26:16.393Z,95305.91
2018-08-22T15:28:42.384Z,95311.67
2018-08-22T15:31:08.366Z,95309.09
2018-08-22T15:33:34.353Z,95302.98
2018-08-22T15:36:00.352Z,95300.41
2018-08-22T15:38:26.348Z,95305.37
2018-08-22T15:40:52.404Z,95304.80
2018-08-22T15:43:18.322Z,95316.88
2018-08-22T15:45:44.315Z,95307.01
2018-08-22T15:48:10.313Z,95304.61
2018-08-22T15:50:36.302Z,95315.52
2018-08-22T15:53:02.322Z,95307.20
2018-08-22T15:55:28.283Z,95306.02
2018-08-22T15:57:54.267Z,95312.59
2018-08-22T16:00:20.305Z,95319.88
2018-08-22T16:02:46.285Z,95310.81
2018-08-22T16:05:12.276Z,95318.34
2018-08-22T16:07:38.282Z,95314.37
2018-08-22T16:10:04.283Z,95312.81
2018-08-22T16:12:30.261Z,95313.40
2018-08-22T16:14:56.274Z,95312.80
2018-08-22T16:17:22.273Z,95316.38
2018-08-22T16:19:48.263Z,95314.01
2018-08-22T16:22:14.261Z,95314.20
2018-08-22T16:24:40.238Z,95309.47
2018-08-22T16:27:06.225Z,95312.03
2018-08-22T16:29:32.202Z,95309.27
2018-08-22T16:31:58.184Z,95316.19
2018-08-22T16:34:24.177Z,95320.55
2018-08-22T16:36:50.154Z,95314.80
2018-08-22T16:39:16.140Z,95322.92
2018-08-22T16:41:42.114Z,95322.92
2018-08-22T16:44:08.164Z,95318.77
2018-08-22T16:46:34.160Z,95323.90
2018-08-22T16:49:00.152Z,95326.48
2018-08-22T16:51:26.131Z,95327.45
2018-08-22T16:53:52.100Z,95328.61
2018-08-22T16:56:18.096Z,95330.61
2018-08-22T16:58:44.083Z,95341.08
2018-08-22T17:01:10.107Z,95331.19
2018-08-22T17:03:36.081Z,95337.30
2018-08-22T17:06:02.110Z,95349.98
2018-08-22T17:08:28.119Z,95346.80
2018-08-22T17:10:54.066Z,95344.61
2018-08-22T17:13:20.044Z,95340.45
2018-08-22T17:15:46.039Z,95343.03
2018-08-22T17:18:12.018Z,95346.58
2018-08-22T17:20:38.016Z,95349.72
2018-08-22T17:23:04.011Z,95351.52
2018-08-22T17:25:30.001Z,95352.90
2018-08-22T17:27:56.000Z,95355.06
2018-08-22T17:30:22.017Z,95351.48
2018-08-22T17:32:47.953Z,95357.61
2018-08-22T17:35:13.934Z,95363.15
2018-08-22T17:37:39.920Z,95364.94
2018-08-22T17:40:05.923Z,95366.90
2018-08-22T17:42:31.933Z,95374.20
2018-08-22T17:44:57.951Z,95376.59
2018-08-22T17:47:23.897Z,95378.19
2018-08-22T17:49:49.872Z,95383.32
2018-08-22T17:52:15.848Z,95390.83
2018-08-22T17:54:41.846Z,95394.41
2018-08-22T17:57:07.836Z,95390.42
2018-08-22T17:59:35.068Z,95395.59
2018-08-22T18:02:01.198Z,95398.73
2018-08-22T18:04:27.197Z,95398.94
2018-08-22T18:06:53.196Z,95401.30
2018-08-22T18:09:19.181Z,95396.74
2018-08-22T18:11:45.165Z,95406.64
2018-08-22T18:14:11.137Z,95409.21
2018-08-22T18:16:37.109Z,95410.19
2018-08-22T18:19:03.091Z,95413.94
2018-08-22T18:21:29.064Z,95413.57
2018-08-22T18:23:55.076Z,95409.99
2018-08-22T18:26:21.129Z,95415.53
2018-08-22T18:28:47.100Z,95411.38
2018-08-22T18:31:13.096Z,95414.15
2018-08-22T18:33:39.069Z,95418.88
2018-08-22T18:36:05.055Z,95427.02
2018-08-22T18:38:31.041Z,95429.79
2018-08-22T18:40:57.016Z,95434.12
2018-08-22T18:43:22.994Z,95427.77
2018-08-22T18:45:48.973Z,95432.12
2018-08-22T18:48:14.967Z,95431.14
2018-08-22T18:50:40.960Z,95430.74
2018-08-22T18:53:06.942Z,95432.53
2018-08-22T18:55:32.944Z,95433.52
2018-08-22T18:57:58.924Z,95435.87
2018-08-22T19:00:24.918Z,95439.62
2018-08-22T19:02:50.878Z,95443.78
2018-08-22T19:05:16.852Z,95445.17
2018-08-22T19:07:42.831Z,95447.12
2018-08-22T19:10:08.809Z,95441.19
2018-08-22T19:12:34.816Z,95434.06
2018-08-22T19:15:00.814Z,95435.48
2018-08-22T19:17:26.862Z,95435.65
2018-08-22T19:19:52.800Z,95436.86
2018-08-22T19:22:18.785Z,95436.45
2018-08-22T19:24:44.776Z,95436.05
2018-08-22T19:27:10.778Z,95437.64
2018-08-22T19:29:36.754Z,95433.89
2018-08-22T19:32:02.732Z,95436.66
2018-08-22T19:34:28.711Z,95437.23
2018-08-22T19:36:54.705Z,95436.05
2018-08-22T19:39:20.726Z,95439.43
2018-08-22T19:41:46.687Z,95439.43
2018-08-22T19:44:12.664Z,95440.20
2018-08-22T19:46:38.667Z,95441.39
2018-08-22T19:49:04.748Z,95435.27
2018-08-22T19:51:30.649Z,95443.58
2018-08-22T19:53:56.684Z,95436.25
2018-08-22T19:56:22.684Z,95436.25
2018-08-22T19:58:48.594Z,95437.23
2018-08-22T20:01:14.573Z,95436.42
2018-08-22T20:03:40.605Z,95444.16
2018-08-22T20:06:06.600Z,95437.64
2018-08-22T20:08:32.596Z,95436.83
2018-08-22T20:10:58.576Z,95431.29
2018-08-22T20:13:24.556Z,95432.85
2018-08-22T20:15:50.557Z,95430.48
2018-08-22T20:18:16.538Z,95423.16
2018-08-22T20:20:42.536Z,95420.79
2018-08-22T20:23:08.529Z,95422.17
2018-08-22T20:25:34.520Z,95420.59
2018-08-22T20:28:00.497Z,95417.23
2018-08-22T20:30:26.547Z,95414.47
2018-08-22T20:32:52.478Z,95413.26
2018-08-22T20:35:18.472Z,95414.06
2018-08-22T20:37:44.476Z,95413.09
2018-08-22T20:40:10.506Z,95416.84
2018-08-22T20:42:36.586Z,95416.44
2018-08-22T20:45:02.515Z,95422.38
2018-08-22T20:47:28.509Z,95425.55
2018-08-22T20:49:54.476Z,95423.77
2018-08-22T20:52:20.453Z,95431.47
2018-08-22T20:54:46.434Z,95426.53
2018-08-22T20:57:12.414Z,95431.47
2018-08-22T20:59:38.398Z,95429.70
2018-08-22T21:02:04.427Z,95434.23
2018-08-22T21:04:30.405Z,95436.63
2018-08-22T21:06:56.390Z,95441.77
2018-08-22T21:09:22.386Z,95439.58
2018-08-22T21:11:48.373Z,95441.36
2018-08-22T21:14:14.361Z,95444.71
2018-08-22T21:16:40.337Z,95441.77
2018-08-22T21:19:06.308Z,95442.34
2018-08-22T21:21:32.288Z,95446.33
2018-08-22T21:23:58.264Z,95447.48
2018-08-22T21:26:24.251Z,95444.30
2018-08-22T21:28:50.224Z,95444.71
2018-08-22T21:31:16.211Z,95451.47
2018-08-22T21:33:42.200Z,95450.45
2018-08-22T21:36:08.181Z,95451.03
2018-08-22T21:38:34.154Z,95452.62
2018-08-22T21:41:00.135Z,95458.97
2018-08-22T21:43:26.114Z,95468.25
2018-08-22T21:45:52.115Z,95468.83
2018-08-22T21:48:18.100Z,95474.37
2018-08-22T21:50:44.074Z,95471.60
2018-08-22T21:53:10.054Z,95468.25
2018-08-22T21:55:36.039Z,95469.23
2018-08-22T21:58:02.031Z,95472.81
2018-08-22T22:00:28.005Z,95477.14
2018-08-22T22:02:54.018Z,95474.98
2018-08-22T22:05:19.994Z,95479.13
2018-08-22T22:07:45.973Z,95480.31
2018-08-22T22:10:11.955Z,95483.09
2018-08-22T22:12:37.945Z,95478.73
2018-08-22T22:15:03.916Z,95483.29
2018-08-22T22:17:29.898Z,95486.06
2018-08-22T22:19:55.938Z,95475.96
2018-08-22T22:22:21.915Z,95486.06
2018-08-22T22:24:47.885Z,95483.29
2018-08-22T22:27:13.878Z,95488.22
2018-08-22T22:29:39.850Z,95485.08
2018-08-22T22:32:05.866Z,95480.92
2018-08-22T22:34:31.814Z,95482.89
2018-08-22T22:36:57.796Z,95484.47
2018-08-22T22:39:23.769Z,95481.91
2018-08-22T22:41:49.790Z,95483.87
2018-08-22T22:44:15.765Z,95484.67
2018-08-22T22:46:41.745Z,95474.00
2018-08-22T22:49:07.771Z,95481.50
2018-08-22T22:51:33.750Z,95477.34
2018-08-22T22:53:59.727Z,95477.34
2018-08-22T22:56:25.762Z,95475.38
2018-08-22T22:58:51.712Z,95475.76
2018-08-22T23:01:17.704Z,95470.83
2018-08-22T23:03:43.681Z,95473.59
2018-08-22T23:06:09.654Z,95474.98
2018-08-22T23:08:35.630Z,95471.23
2018-08-22T23:11:01.651Z,95468.45
2018-08-22T23:13:27.631Z,95466.27
2018-08-22T23:15:53.599Z,95461.70
2018-08-22T23:18:19.595Z,95463.09
2018-08-22T23:20:45.557Z,95465.28
2018-08-22T23:23:11.578Z,95464.88
2018-08-22T23:25:37.596Z,95464.47
2018-08-22T23:28:03.582Z,95473.19
2018-08-22T23:30:29.552Z,95466.67
2018-08-22T23:32:55.533Z,95469.03
2018-08-22T23:35:21.514Z,95461.13
2018-08-22T23:37:47.489Z,95468.05
2018-08-22T23:40:13.472Z,95465.86
2018-08-22T23:42:39.454Z,95462.52
2018-08-22T23:45:05.443Z,95463.09
2018-08-22T23:47:31.430Z,95466.27
2018-08-22T23:49:57.404Z,95467.08
2018-08-22T23:52:23.380Z,95463.09
2018-08-22T23:54:49.365Z,95467.66
2018-08-22T23:57:15.364Z,95469.03
2018-08-22T23:59:41.354Z,95462.69
